sensor_id;sensor_type;location;lat;lon;timestamp;P1;durP1;ratioP1;P2;durP2;ratioP2
33738;SDS011;20063;51.730;11.110;2023-02-01T00:01:37;14.27;;;3.60;;
33738;SDS011;20063;51.730;11.110;2023-02-01T00:04:03;21.25;;;4.25;;
33738;SDS011;20063;51.730;11.110;2023-02-01T00:06:29;14.23;;;3.83;;
33738;SDS011;20063;51.730;11.110;2023-02-01T00:08:54;16.30;;;3.70;;
33738;SDS011;20063;51.730;11.110;2023-02-01T00:11:20;19.48;;;4.03;;
33738;SDS011;20063;51.730;11.110;2023-02-01T00:13:49;22.35;;;4.05;;
33738;SDS011;20063;51.730;11.110;2023-02-01T00:16:16;22.58;;;5.15;;
33738;SDS011;20063;51.730;11.110;2023-02-01T00:18:47;20.25;;;4.28;;
33738;SDS011;20063;51.730;11.110;2023-02-01T00:21:14;26.27;;;3.38;;
33738;SDS011;20063;51.730;11.110;2023-02-01T00:23:41;38.88;;;4.68;;
33738;SDS011;20063;51.730;11.110;2023-02-01T00:26:08;18.92;;;3.47;;
33738;SDS011;20063;51.730;11.110;2023-02-01T00:28:41;27.38;;;3.90;;
33738;SDS011;20063;51.730;11.110;2023-02-01T00:31:06;25.05;;;4.10;;
33738;SDS011;20063;51.730;11.110;2023-02-01T00:33:32;27.70;;;3.47;;
33738;SDS011;20063;51.730;11.110;2023-02-01T00:36:00;27.58;;;3.80;;
33738;SDS011;20063;51.730;11.110;2023-02-01T00:38:27;21.83;;;3.58;;
33738;SDS011;20063;51.730;11.110;2023-02-01T00:41:06;27.27;;;4.35;;
33738;SDS011;20063;51.730;11.110;2023-02-01T00:43:42;27.98;;;4.00;;
33738;SDS011;20063;51.730;11.110;2023-02-01T00:46:09;24.50;;;5.45;;
33738;SDS011;20063;51.730;11.110;2023-02-01T00:48:36;30.27;;;4.95;;
33738;SDS011;20063;51.730;11.110;2023-02-01T00:51:02;25.98;;;4.32;;
33738;SDS011;20063;51.730;11.110;2023-02-01T00:53:30;25.83;;;4.38;;
33738;SDS011;20063;51.730;11.110;2023-02-01T00:55:55;22.00;;;3.50;;
33738;SDS011;20063;51.730;11.110;2023-02-01T00:58:21;39.70;;;6.60;;
33738;SDS011;20063;51.730;11.110;2023-02-01T01:00:49;22.48;;;4.55;;
33738;SDS011;20063;51.730;11.110;2023-02-01T01:03:14;18.45;;;4.55;;
33738;SDS011;20063;51.730;11.110;2023-02-01T01:05:56;37.25;;;5.25;;
33738;SDS011;20063;51.730;11.110;2023-02-01T01:08:22;25.40;;;3.75;;
33738;SDS011;20063;51.730;11.110;2023-02-01T01:10:48;33.50;;;4.90;;
33738;SDS011;20063;51.730;11.110;2023-02-01T01:13:14;35.47;;;4.82;;
33738;SDS011;20063;51.730;11.110;2023-02-01T01:15:40;33.17;;;4.75;;
33738;SDS011;20063;51.730;11.110;2023-02-01T01:18:06;24.98;;;3.88;;
33738;SDS011;20063;51.730;11.110;2023-02-01T01:20:37;26.75;;;4.47;;
33738;SDS011;20063;51.730;11.110;2023-02-01T01:23:04;24.30;;;3.40;;
33738;SDS011;20063;51.730;11.110;2023-02-01T01:25:31;24.95;;;4.55;;
33738;SDS011;20063;51.730;11.110;2023-02-01T01:27:57;26.40;;;4.20;;
33738;SDS011;20063;51.730;11.110;2023-02-01T01:30:23;23.73;;;5.07;;
33738;SDS011;20063;51.730;11.110;2023-02-01T01:32:51;24.15;;;4.57;;
33738;SDS011;20063;51.730;11.110;2023-02-01T01:35:17;31.33;;;5.97;;
33738;SDS011;20063;51.730;11.110;2023-02-01T01:37:42;28.77;;;4.28;;
33738;SDS011;20063;51.730;11.110;2023-02-01T01:40:09;31.23;;;4.53;;
33738;SDS011;20063;51.730;11.110;2023-02-01T01:42:38;29.38;;;4.53;;
33738;SDS011;20063;51.730;11.110;2023-02-01T01:45:06;38.20;;;6.97;;
33738;SDS011;20063;51.730;11.110;2023-02-01T01:47:37;35.83;;;5.13;;
33738;SDS011;20063;51.730;11.110;2023-02-01T01:50:07;29.30;;;5.07;;
33738;SDS011;20063;51.730;11.110;2023-02-01T01:52:35;26.90;;;4.50;;
33738;SDS011;20063;51.730;11.110;2023-02-01T01:55:02;30.73;;;4.80;;
33738;SDS011;20063;51.730;11.110;2023-02-01T01:57:31;32.05;;;4.55;;
33738;SDS011;20063;51.730;11.110;2023-02-01T02:00:08;25.73;;;4.10;;
33738;SDS011;20063;51.730;11.110;2023-02-01T02:02:37;37.60;;;8.02;;
33738;SDS011;20063;51.730;11.110;2023-02-01T02:05:05;35.72;;;4.93;;
33738;SDS011;20063;51.730;11.110;2023-02-01T02:07:32;24.25;;;4.20;;
33738;SDS011;20063;51.730;11.110;2023-02-01T02:10:02;36.58;;;4.70;;
33738;SDS011;20063;51.730;11.110;2023-02-01T02:12:30;30.17;;;4.80;;
33738;SDS011;20063;51.730;11.110;2023-02-01T02:14:57;29.58;;;5.85;;
33738;SDS011;20063;51.730;11.110;2023-02-01T02:28:13;26.38;;;4.20;;
33738;SDS011;20063;51.730;11.110;2023-02-01T02:37:16;29.85;;;5.10;;
33738;SDS011;20063;51.730;11.110;2023-02-01T02:42:40;25.50;;;4.50;;
33738;SDS011;20063;51.730;11.110;2023-02-01T02:45:29;25.30;;;5.20;;
33738;SDS011;20063;51.730;11.110;2023-02-01T02:50:58;28.75;;;4.60;;
33738;SDS011;20063;51.730;11.110;2023-02-01T02:57:10;23.20;;;4.90;;
33738;SDS011;20063;51.730;11.110;2023-02-01T03:00:07;33.80;;;5.53;;
33738;SDS011;20063;51.730;11.110;2023-02-01T03:02:54;33.05;;;5.05;;
33738;SDS011;20063;51.730;11.110;2023-02-01T03:05:41;28.83;;;4.97;;
33738;SDS011;20063;51.730;11.110;2023-02-01T03:16:22;29.08;;;5.97;;
33738;SDS011;20063;51.730;11.110;2023-02-01T03:19:02;28.70;;;4.63;;
33738;SDS011;20063;51.730;11.110;2023-02-01T03:21:55;27.17;;;5.45;;
33738;SDS011;20063;51.730;11.110;2023-02-01T03:24:46;34.33;;;7.55;;
33738;SDS011;20063;51.730;11.110;2023-02-01T03:30:02;38.72;;;5.43;;
33738;SDS011;20063;51.730;11.110;2023-02-01T03:32:32;47.03;;;6.40;;
33738;SDS011;20063;51.730;11.110;2023-02-01T03:35:19;32.20;;;5.88;;
33738;SDS011;20063;51.730;11.110;2023-02-01T03:37:53;36.55;;;7.13;;
33738;SDS011;20063;51.730;11.110;2023-02-01T03:40:31;30.73;;;6.28;;
33738;SDS011;20063;51.730;11.110;2023-02-01T03:42:59;34.40;;;6.65;;
33738;SDS011;20063;51.730;11.110;2023-02-01T03:45:27;34.13;;;5.82;;
33738;SDS011;20063;51.730;11.110;2023-02-01T03:48:00;31.98;;;5.43;;
33738;SDS011;20063;51.730;11.110;2023-02-01T03:50:28;34.72;;;5.63;;
33738;SDS011;20063;51.730;11.110;2023-02-01T03:53:00;27.23;;;5.55;;
33738;SDS011;20063;51.730;11.110;2023-02-01T03:55:33;40.58;;;6.82;;
33738;SDS011;20063;51.730;11.110;2023-02-01T03:58:07;38.38;;;7.15;;
33738;SDS011;20063;51.730;11.110;2023-02-01T04:00:37;40.17;;;6.70;;
33738;SDS011;20063;51.730;11.110;2023-02-01T04:03:23;39.63;;;6.35;;
33738;SDS011;20063;51.730;11.110;2023-02-01T04:05:52;30.55;;;5.30;;
33738;SDS011;20063;51.730;11.110;2023-02-01T04:08:21;30.80;;;5.55;;
33738;SDS011;20063;51.730;11.110;2023-02-01T04:10:47;31.75;;;5.80;;
33738;SDS011;20063;51.730;11.110;2023-02-01T04:13:13;32.03;;;6.88;;
33738;SDS011;20063;51.730;11.110;2023-02-01T04:15:39;43.38;;;6.75;;
33738;SDS011;20063;51.730;11.110;2023-02-01T04:18:04;36.00;;;7.10;;
33738;SDS011;20063;51.730;11.110;2023-02-01T04:20:30;44.53;;;6.95;;
33738;SDS011;20063;51.730;11.110;2023-02-01T04:22:56;37.65;;;6.88;;
33738;SDS011;20063;51.730;11.110;2023-02-01T04:25:22;36.33;;;6.38;;
33738;SDS011;20063;51.730;11.110;2023-02-01T04:27:47;40.35;;;6.65;;
33738;SDS011;20063;51.730;11.110;2023-02-01T04:30:13;46.63;;;5.90;;
33738;SDS011;20063;51.730;11.110;2023-02-01T04:32:39;24.63;;;5.85;;
33738;SDS011;20063;51.730;11.110;2023-02-01T04:35:06;60.22;;;8.68;;
33738;SDS011;20063;51.730;11.110;2023-02-01T04:37:32;33.75;;;6.65;;
33738;SDS011;20063;51.730;11.110;2023-02-01T04:39:58;35.38;;;7.25;;
33738;SDS011;20063;51.730;11.110;2023-02-01T04:42:23;29.95;;;5.15;;
33738;SDS011;20063;51.730;11.110;2023-02-01T04:44:49;44.92;;;6.82;;
33738;SDS011;20063;51.730;11.110;2023-02-01T04:47:15;42.05;;;6.57;;
33738;SDS011;20063;51.730;11.110;2023-02-01T04:49:40;40.45;;;7.15;;
33738;SDS011;20063;51.730;11.110;2023-02-01T04:52:07;35.03;;;7.70;;
33738;SDS011;20063;51.730;11.110;2023-02-01T04:54:33;28.65;;;5.50;;
33738;SDS011;20063;51.730;11.110;2023-02-01T04:56:58;39.65;;;6.70;;
33738;SDS011;20063;51.730;11.110;2023-02-01T04:59:24;35.53;;;8.02;;
33738;SDS011;20063;51.730;11.110;2023-02-01T05:01:50;32.53;;;6.90;;
33738;SDS011;20063;51.730;11.110;2023-02-01T05:04:16;46.28;;;6.93;;
33738;SDS011;20063;51.730;11.110;2023-02-01T05:06:43;36.90;;;6.60;;
33738;SDS011;20063;51.730;11.110;2023-02-01T05:09:09;34.80;;;6.68;;
33738;SDS011;20063;51.730;11.110;2023-02-01T05:11:35;31.15;;;6.28;;
33738;SDS011;20063;51.730;11.110;2023-02-01T05:14:19;47.90;;;7.88;;
33738;SDS011;20063;51.730;11.110;2023-02-01T05:16:45;40.25;;;7.03;;
33738;SDS011;20063;51.730;11.110;2023-02-01T05:19:10;30.55;;;6.80;;
33738;SDS011;20063;51.730;11.110;2023-02-01T05:21:36;26.98;;;6.03;;
33738;SDS011;20063;51.730;11.110;2023-02-01T05:24:01;27.30;;;6.90;;
33738;SDS011;20063;51.730;11.110;2023-02-01T05:26:44;39.42;;;6.80;;
33738;SDS011;20063;51.730;11.110;2023-02-01T05:29:10;28.45;;;5.32;;
33738;SDS011;20063;51.730;11.110;2023-02-01T05:31:36;22.10;;;5.35;;
33738;SDS011;20063;51.730;11.110;2023-02-01T05:34:02;24.58;;;5.57;;
33738;SDS011;20063;51.730;11.110;2023-02-01T05:36:27;28.90;;;5.88;;
33738;SDS011;20063;51.730;11.110;2023-02-01T05:38:53;25.15;;;5.97;;
33738;SDS011;20063;51.730;11.110;2023-02-01T05:41:20;33.70;;;8.73;;
33738;SDS011;20063;51.730;11.110;2023-02-01T05:43:45;35.20;;;5.43;;
33738;SDS011;20063;51.730;11.110;2023-02-01T05:46:11;24.52;;;5.45;;
33738;SDS011;20063;51.730;11.110;2023-02-01T05:48:38;25.88;;;5.72;;
33738;SDS011;20063;51.730;11.110;2023-02-01T05:51:04;37.90;;;7.20;;
33738;SDS011;20063;51.730;11.110;2023-02-01T05:53:30;21.95;;;5.50;;
33738;SDS011;20063;51.730;11.110;2023-02-01T05:55:55;27.17;;;5.38;;
33738;SDS011;20063;51.730;11.110;2023-02-01T05:58:21;33.35;;;6.75;;
33738;SDS011;20063;51.730;11.110;2023-02-01T06:00:47;39.72;;;6.43;;
33738;SDS011;20063;51.730;11.110;2023-02-01T06:03:12;34.78;;;6.35;;
33738;SDS011;20063;51.730;11.110;2023-02-01T06:05:38;23.50;;;5.40;;
33738;SDS011;20063;51.730;11.110;2023-02-01T06:08:03;24.58;;;6.00;;
33738;SDS011;20063;51.730;11.110;2023-02-01T06:10:29;33.65;;;5.80;;
33738;SDS011;20063;51.730;11.110;2023-02-01T06:12:55;33.40;;;5.63;;
33738;SDS011;20063;51.730;11.110;2023-02-01T06:15:20;22.48;;;5.32;;
33738;SDS011;20063;51.730;11.110;2023-02-01T06:17:46;24.52;;;4.45;;
33738;SDS011;20063;51.730;11.110;2023-02-01T06:20:12;24.98;;;5.88;;
33738;SDS011;20063;51.730;11.110;2023-02-01T06:22:39;29.08;;;5.97;;
33738;SDS011;20063;51.730;11.110;2023-02-01T06:25:05;25.45;;;6.25;;
33738;SDS011;20063;51.730;11.110;2023-02-01T06:27:33;36.67;;;5.60;;
33738;SDS011;20063;51.730;11.110;2023-02-01T06:29:59;14.38;;;4.32;;
33738;SDS011;20063;51.730;11.110;2023-02-01T06:32:25;20.27;;;4.97;;
33738;SDS011;20063;51.730;11.110;2023-02-01T06:34:50;18.13;;;4.95;;
33738;SDS011;20063;51.730;11.110;2023-02-01T06:37:25;17.65;;;4.70;;
33738;SDS011;20063;51.730;11.110;2023-02-01T06:39:52;22.52;;;5.07;;
33738;SDS011;20063;51.730;11.110;2023-02-01T06:42:18;23.38;;;5.35;;
33738;SDS011;20063;51.730;11.110;2023-02-01T06:44:43;17.50;;;4.45;;
33738;SDS011;20063;51.730;11.110;2023-02-01T06:47:10;16.65;;;4.32;;
33738;SDS011;20063;51.730;11.110;2023-02-01T06:49:36;24.48;;;5.47;;
33738;SDS011;20063;51.730;11.110;2023-02-01T06:52:02;17.88;;;4.32;;
33738;SDS011;20063;51.730;11.110;2023-02-01T06:54:27;32.90;;;6.18;;
33738;SDS011;20063;51.730;11.110;2023-02-01T06:56:54;22.17;;;5.88;;
33738;SDS011;20063;51.730;11.110;2023-02-01T06:59:20;19.08;;;3.78;;
33738;SDS011;20063;51.730;11.110;2023-02-01T07:01:45;18.67;;;4.78;;
33738;SDS011;20063;51.730;11.110;2023-02-01T07:04:11;19.80;;;5.07;;
33738;SDS011;20063;51.730;11.110;2023-02-01T07:06:37;24.15;;;4.97;;
33738;SDS011;20063;51.730;11.110;2023-02-01T07:09:03;18.17;;;4.70;;
33738;SDS011;20063;51.730;11.110;2023-02-01T07:11:29;20.10;;;4.38;;
33738;SDS011;20063;51.730;11.110;2023-02-01T07:13:55;19.75;;;5.30;;
33738;SDS011;20063;51.730;11.110;2023-02-01T07:16:21;16.75;;;5.53;;
33738;SDS011;20063;51.730;11.110;2023-02-01T07:18:46;14.13;;;3.95;;
33738;SDS011;20063;51.730;11.110;2023-02-01T07:21:13;15.65;;;4.55;;
33738;SDS011;20063;51.730;11.110;2023-02-01T07:23:38;12.35;;;3.88;;
33738;SDS011;20063;51.730;11.110;2023-02-01T07:26:05;19.38;;;4.30;;
33738;SDS011;20063;51.730;11.110;2023-02-01T07:28:32;10.73;;;3.30;;
33738;SDS011;20063;51.730;11.110;2023-02-01T07:31:32;11.32;;;3.47;;
33738;SDS011;20063;51.730;11.110;2023-02-01T07:33:53;21.23;;;3.65;;
33738;SDS011;20063;51.730;11.110;2023-02-01T07:36:21;8.75;;;2.60;;
33738;SDS011;20063;51.730;11.110;2023-02-01T07:38:47;7.30;;;2.97;;
33738;SDS011;20063;51.730;11.110;2023-02-01T07:41:13;13.15;;;3.25;;
33738;SDS011;20063;51.730;11.110;2023-02-01T07:43:39;11.50;;;3.30;;
33738;SDS011;20063;51.730;11.110;2023-02-01T07:46:05;6.80;;;2.60;;
33738;SDS011;20063;51.730;11.110;2023-02-01T07:48:31;6.18;;;2.80;;
33738;SDS011;20063;51.730;11.110;2023-02-01T07:51:11;6.80;;;2.72;;
33738;SDS011;20063;51.730;11.110;2023-02-01T07:53:39;6.93;;;2.50;;
33738;SDS011;20063;51.730;11.110;2023-02-01T07:56:12;2.30;;;1.92;;
33738;SDS011;20063;51.730;11.110;2023-02-01T07:58:40;10.00;;;4.13;;
33738;SDS011;20063;51.730;11.110;2023-02-01T08:01:05;2.85;;;2.40;;
33738;SDS011;20063;51.730;11.110;2023-02-01T08:03:45;4.10;;;1.90;;
33738;SDS011;20063;51.730;11.110;2023-02-01T08:06:22;3.35;;;1.85;;
33738;SDS011;20063;51.730;11.110;2023-02-01T08:08:50;4.45;;;1.95;;
33738;SDS011;20063;51.730;11.110;2023-02-01T08:11:17;9.25;;;4.03;;
33738;SDS011;20063;51.730;11.110;2023-02-01T08:13:43;7.85;;;3.47;;
33738;SDS011;20063;51.730;11.110;2023-02-01T08:16:09;7.03;;;2.45;;
33738;SDS011;20063;51.730;11.110;2023-02-01T08:18:36;7.03;;;2.67;;
33738;SDS011;20063;51.730;11.110;2023-02-01T08:21:04;7.80;;;2.47;;
33738;SDS011;20063;51.730;11.110;2023-02-01T08:23:32;6.10;;;2.50;;
33738;SDS011;20063;51.730;11.110;2023-02-01T08:26:10;7.38;;;2.50;;
33738;SDS011;20063;51.730;11.110;2023-02-01T08:28:40;7.32;;;2.85;;
33738;SDS011;20063;51.730;11.110;2023-02-01T08:31:09;10.32;;;3.38;;
33738;SDS011;20063;51.730;11.110;2023-02-01T08:33:36;15.20;;;4.07;;
33738;SDS011;20063;51.730;11.110;2023-02-01T08:36:07;8.13;;;2.92;;
33738;SDS011;20063;51.730;11.110;2023-02-01T08:38:34;8.90;;;2.97;;
33738;SDS011;20063;51.730;11.110;2023-02-01T08:41:05;10.80;;;4.30;;
33738;SDS011;20063;51.730;11.110;2023-02-01T08:43:41;5.50;;;2.95;;
33738;SDS011;20063;51.730;11.110;2023-02-01T08:46:08;11.05;;;4.07;;
33738;SDS011;20063;51.730;11.110;2023-02-01T08:48:34;9.63;;;3.30;;
33738;SDS011;20063;51.730;11.110;2023-02-01T08:51:22;5.93;;;2.53;;
33738;SDS011;20063;51.730;11.110;2023-02-01T08:53:47;7.93;;;3.70;;
33738;SDS011;20063;51.730;11.110;2023-02-01T08:56:14;6.65;;;2.95;;
33738;SDS011;20063;51.730;11.110;2023-02-01T08:58:41;7.72;;;2.80;;
33738;SDS011;20063;51.730;11.110;2023-02-01T09:01:08;9.75;;;2.65;;
33738;SDS011;20063;51.730;11.110;2023-02-01T09:03:36;9.85;;;2.20;;
33738;SDS011;20063;51.730;11.110;2023-02-01T09:06:03;20.65;;;4.07;;
33738;SDS011;20063;51.730;11.110;2023-02-01T09:08:30;14.18;;;3.13;;
33738;SDS011;20063;51.730;11.110;2023-02-01T09:11:00;17.73;;;3.28;;
33738;SDS011;20063;51.730;11.110;2023-02-01T09:13:27;16.10;;;2.90;;
33738;SDS011;20063;51.730;11.110;2023-02-01T09:15:53;12.75;;;3.08;;
33738;SDS011;20063;51.730;11.110;2023-02-01T09:18:19;22.08;;;3.38;;
33738;SDS011;20063;51.730;11.110;2023-02-01T09:20:44;17.83;;;3.38;;
33738;SDS011;20063;51.730;11.110;2023-02-01T09:23:10;17.30;;;3.70;;
33738;SDS011;20063;51.730;11.110;2023-02-01T09:25:36;17.58;;;3.83;;
33738;SDS011;20063;51.730;11.110;2023-02-01T09:28:03;16.60;;;3.97;;
33738;SDS011;20063;51.730;11.110;2023-02-01T09:30:30;17.02;;;3.53;;
33738;SDS011;20063;51.730;11.110;2023-02-01T09:32:58;22.92;;;3.33;;
33738;SDS011;20063;51.730;11.110;2023-02-01T09:35:26;21.17;;;3.40;;
33738;SDS011;20063;51.730;11.110;2023-02-01T09:37:52;31.08;;;4.15;;
33738;SDS011;20063;51.730;11.110;2023-02-01T09:40:18;16.25;;;3.72;;
33738;SDS011;20063;51.730;11.110;2023-02-01T09:45:43;22.83;;;4.53;;
33738;SDS011;20063;51.730;11.110;2023-02-01T09:48:24;12.70;;;3.25;;
33738;SDS011;20063;51.730;11.110;2023-02-01T09:50:58;29.42;;;5.57;;
33738;SDS011;20063;51.730;11.110;2023-02-01T09:55:58;28.10;;;4.65;;
33738;SDS011;20063;51.730;11.110;2023-02-01T10:01:01;18.90;;;3.22;;
33738;SDS011;20063;51.730;11.110;2023-02-01T10:03:32;15.73;;;3.03;;
33738;SDS011;20063;51.730;11.110;2023-02-01T10:06:10;16.35;;;3.08;;
33738;SDS011;20063;51.730;11.110;2023-02-01T10:20:30;22.52;;;3.22;;
33738;SDS011;20063;51.730;11.110;2023-02-01T10:28:29;21.23;;;3.35;;
33738;SDS011;20063;51.730;11.110;2023-02-01T10:30:59;18.80;;;3.95;;
33738;SDS011;20063;51.730;11.110;2023-02-01T10:33:32;24.48;;;4.13;;
33738;SDS011;20063;51.730;11.110;2023-02-01T10:38:32;17.15;;;3.55;;
33738;SDS011;20063;51.730;11.110;2023-02-01T10:41:01;14.35;;;3.90;;
33738;SDS011;20063;51.730;11.110;2023-02-01T10:43:32;27.42;;;5.80;;
33738;SDS011;20063;51.730;11.110;2023-02-01T10:45:58;25.63;;;4.35;;
33738;SDS011;20063;51.730;11.110;2023-02-01T10:48:24;23.33;;;4.30;;
33738;SDS011;20063;51.730;11.110;2023-02-01T10:53:35;22.40;;;3.80;;
33738;SDS011;20063;51.730;11.110;2023-02-01T10:56:12;17.73;;;4.25;;
33738;SDS011;20063;51.730;11.110;2023-02-01T10:58:47;29.83;;;4.40;;
33738;SDS011;20063;51.730;11.110;2023-02-01T11:01:17;27.40;;;3.85;;
33738;SDS011;20063;51.730;11.110;2023-02-01T11:03:56;28.90;;;4.78;;
33738;SDS011;20063;51.730;11.110;2023-02-01T11:06:37;20.70;;;4.00;;
33738;SDS011;20063;51.730;11.110;2023-02-01T11:11:52;32.03;;;4.82;;
33738;SDS011;20063;51.730;11.110;2023-02-01T11:14:22;26.92;;;5.40;;
33738;SDS011;20063;51.730;11.110;2023-02-01T11:20:08;26.05;;;4.22;;
33738;SDS011;20063;51.730;11.110;2023-02-01T11:22:45;26.38;;;6.35;;
33738;SDS011;20063;51.730;11.110;2023-02-01T11:25:13;17.27;;;4.10;;
33738;SDS011;20063;51.730;11.110;2023-02-01T11:27:40;28.33;;;6.70;;
33738;SDS011;20063;51.730;11.110;2023-02-01T11:30:06;15.40;;;3.42;;
33738;SDS011;20063;51.730;11.110;2023-02-01T11:32:39;18.60;;;3.83;;
33738;SDS011;20063;51.730;11.110;2023-02-01T11:35:05;22.95;;;4.75;;
33738;SDS011;20063;51.730;11.110;2023-02-01T11:37:36;19.50;;;3.58;;
33738;SDS011;20063;51.730;11.110;2023-02-01T11:40:22;26.35;;;4.10;;
33738;SDS011;20063;51.730;11.110;2023-02-01T11:43:01;24.92;;;4.18;;
33738;SDS011;20063;51.730;11.110;2023-02-01T11:45:34;25.20;;;4.80;;
33738;SDS011;20063;51.730;11.110;2023-02-01T11:48:02;20.08;;;4.07;;
33738;SDS011;20063;51.730;11.110;2023-02-01T11:50:37;18.77;;;4.32;;
33738;SDS011;20063;51.730;11.110;2023-02-01T11:53:23;23.55;;;4.75;;
33738;SDS011;20063;51.730;11.110;2023-02-01T11:58:59;19.90;;;4.03;;
33738;SDS011;20063;51.730;11.110;2023-02-01T12:10:20;29.30;;;4.80;;
33738;SDS011;20063;51.730;11.110;2023-02-01T12:37:50;31.33;;;4.47;;
33738;SDS011;20063;51.730;11.110;2023-02-01T12:43:04;26.20;;;5.10;;
33738;SDS011;20063;51.730;11.110;2023-02-01T12:45:55;25.67;;;5.60;;
33738;SDS011;20063;51.730;11.110;2023-02-01T12:51:24;30.52;;;5.45;;
33738;SDS011;20063;51.730;11.110;2023-02-01T12:57:19;20.27;;;4.65;;
33738;SDS011;20063;51.730;11.110;2023-02-01T12:59:55;27.63;;;5.05;;
33738;SDS011;20063;51.730;11.110;2023-02-01T13:02:52;30.52;;;5.15;;
33738;SDS011;20063;51.730;11.110;2023-02-01T13:05:45;18.27;;;5.65;;
33738;SDS011;20063;51.730;11.110;2023-02-01T13:08:14;24.05;;;4.90;;
33738;SDS011;20063;51.730;11.110;2023-02-01T13:10:48;30.95;;;5.63;;
33738;SDS011;20063;51.730;11.110;2023-02-01T13:18:54;25.70;;;4.78;;
33738;SDS011;20063;51.730;11.110;2023-02-01T13:21:34;16.50;;;4.03;;
33738;SDS011;20063;51.730;11.110;2023-02-01T13:24:07;26.27;;;4.10;;
33738;SDS011;20063;51.730;11.110;2023-02-01T13:26:55;28.92;;;5.43;;
33738;SDS011;20063;51.730;11.110;2023-02-01T13:29:21;25.25;;;4.45;;
33738;SDS011;20063;51.730;11.110;2023-02-01T13:43:35;18.67;;;4.80;;
33738;SDS011;20063;51.730;11.110;2023-02-01T13:45:48;13.95;;;3.97;;
33738;SDS011;20063;51.730;11.110;2023-02-01T13:48:25;17.17;;;4.32;;
33738;SDS011;20063;51.730;11.110;2023-02-01T13:50:55;19.58;;;4.25;;
33738;SDS011;20063;51.730;11.110;2023-02-01T13:53:30;22.98;;;4.90;;
33738;SDS011;20063;51.730;11.110;2023-02-01T13:58:47;38.03;;;7.82;;
33738;SDS011;20063;51.730;11.110;2023-02-01T14:03:56;15.90;;;4.22;;
33738;SDS011;20063;51.730;11.110;2023-02-01T14:11:36;23.75;;;4.85;;
33738;SDS011;20063;51.730;11.110;2023-02-01T14:16:41;29.08;;;7.32;;
33738;SDS011;20063;51.730;11.110;2023-02-01T14:19:21;17.25;;;5.45;;
33738;SDS011;20063;51.730;11.110;2023-02-01T14:21:48;26.83;;;7.28;;
33738;SDS011;20063;51.730;11.110;2023-02-01T14:24:24;22.50;;;5.70;;
33738;SDS011;20063;51.730;11.110;2023-02-01T14:27:17;24.30;;;5.55;;
33738;SDS011;20063;51.730;11.110;2023-02-01T14:29:50;17.20;;;5.15;;
33738;SDS011;20063;51.730;11.110;2023-02-01T14:32:23;19.38;;;5.97;;
33738;SDS011;20063;51.730;11.110;2023-02-01T14:34:52;17.58;;;5.05;;
33738;SDS011;20063;51.730;11.110;2023-02-01T14:37:23;21.73;;;7.55;;
33738;SDS011;20063;51.730;11.110;2023-02-01T14:53:32;13.55;;;3.75;;
33738;SDS011;20063;51.730;11.110;2023-02-01T14:56:04;15.88;;;4.32;;
33738;SDS011;20063;51.730;11.110;2023-02-01T15:01:31;10.90;;;4.18;;
33738;SDS011;20063;51.730;11.110;2023-02-01T15:04:32;9.02;;;4.13;;
33738;SDS011;20063;51.730;11.110;2023-02-01T15:06:55;2.20;;;1.75;;
33738;SDS011;20063;51.730;11.110;2023-02-01T15:09:37;1.30;;;1.20;;
33738;SDS011;20063;51.730;11.110;2023-02-01T15:14:40;1.30;;;1.20;;
33738;SDS011;20063;51.730;11.110;2023-02-01T15:20:14;1.95;;;1.75;;
33738;SDS011;20063;51.730;11.110;2023-02-01T15:22:42;1.70;;;1.60;;
33738;SDS011;20063;51.730;11.110;2023-02-01T15:25:19;1.35;;;1.30;;
33738;SDS011;20063;51.730;11.110;2023-02-01T15:27:46;2.15;;;1.98;;
33738;SDS011;20063;51.730;11.110;2023-02-01T15:30:16;1.63;;;1.52;;
33738;SDS011;20063;51.730;11.110;2023-02-01T15:32:51;3.22;;;2.17;;
33738;SDS011;20063;51.730;11.110;2023-02-01T15:35:37;19.63;;;10.43;;
33738;SDS011;20063;51.730;11.110;2023-02-01T15:41:02;8.05;;;3.35;;
33738;SDS011;20063;51.730;11.110;2023-02-01T15:43:31;5.90;;;2.78;;
33738;SDS011;20063;51.730;11.110;2023-02-01T15:46:03;24.63;;;8.55;;
33738;SDS011;20063;51.730;11.110;2023-02-01T15:48:35;11.85;;;4.95;;
33738;SDS011;20063;51.730;11.110;2023-02-01T15:51:04;3.53;;;1.52;;
33738;SDS011;20063;51.730;11.110;2023-02-01T15:53:30;7.32;;;3.40;;
33738;SDS011;20063;51.730;11.110;2023-02-01T15:55:59;7.38;;;1.85;;
33738;SDS011;20063;51.730;11.110;2023-02-01T15:58:26;9.55;;;2.53;;
33738;SDS011;20063;51.730;11.110;2023-02-01T16:00:57;7.38;;;2.22;;
33738;SDS011;20063;51.730;11.110;2023-02-01T16:11:26;6.40;;;1.70;;
33738;SDS011;20063;51.730;11.110;2023-02-01T16:13:55;6.72;;;2.33;;
33738;SDS011;20063;51.730;11.110;2023-02-01T16:16:25;6.57;;;2.05;;
33738;SDS011;20063;51.730;11.110;2023-02-01T16:18:52;9.50;;;2.13;;
33738;SDS011;20063;51.730;11.110;2023-02-01T16:21:18;12.10;;;2.50;;
33738;SDS011;20063;51.730;11.110;2023-02-01T16:23:47;6.97;;;1.30;;
33738;SDS011;20063;51.730;11.110;2023-02-01T16:26:15;9.75;;;1.70;;
33738;SDS011;20063;51.730;11.110;2023-02-01T16:28:41;9.63;;;2.15;;
33738;SDS011;20063;51.730;11.110;2023-02-01T16:31:09;6.45;;;3.05;;
33738;SDS011;20063;51.730;11.110;2023-02-01T16:33:46;19.73;;;1.95;;
33738;SDS011;20063;51.730;11.110;2023-02-01T16:36:13;6.78;;;1.67;;
33738;SDS011;20063;51.730;11.110;2023-02-01T16:38:39;9.80;;;1.92;;
33738;SDS011;20063;51.730;11.110;2023-02-01T16:41:15;13.10;;;2.08;;
33738;SDS011;20063;51.730;11.110;2023-02-01T16:43:43;9.80;;;2.15;;
33738;SDS011;20063;51.730;11.110;2023-02-01T16:46:14;8.63;;;1.60;;
33738;SDS011;20063;51.730;11.110;2023-02-01T16:48:42;26.70;;;2.92;;
33738;SDS011;20063;51.730;11.110;2023-02-01T16:51:15;12.75;;;2.30;;
33738;SDS011;20063;51.730;11.110;2023-02-01T16:53:41;13.65;;;2.10;;
33738;SDS011;20063;51.730;11.110;2023-02-01T16:56:18;18.77;;;2.67;;
33738;SDS011;20063;51.730;11.110;2023-02-01T16:58:48;12.00;;;2.70;;
33738;SDS011;20063;51.730;11.110;2023-02-01T17:01:15;19.88;;;3.13;;
33738;SDS011;20063;51.730;11.110;2023-02-01T17:03:43;16.77;;;2.67;;
33738;SDS011;20063;51.730;11.110;2023-02-01T17:06:10;15.50;;;3.22;;
33738;SDS011;20063;51.730;11.110;2023-02-01T17:08:41;9.15;;;2.30;;
33738;SDS011;20063;51.730;11.110;2023-02-01T17:11:09;8.35;;;2.50;;
33738;SDS011;20063;51.730;11.110;2023-02-01T17:13:37;8.82;;;2.00;;
33738;SDS011;20063;51.730;11.110;2023-02-01T17:16:04;12.82;;;3.80;;
33738;SDS011;20063;51.730;11.110;2023-02-01T17:18:37;13.68;;;2.55;;
33738;SDS011;20063;51.730;11.110;2023-02-01T17:21:03;5.85;;;1.48;;
33738;SDS011;20063;51.730;11.110;2023-02-01T17:23:30;16.63;;;2.08;;
33738;SDS011;20063;51.730;11.110;2023-02-01T17:25:59;14.95;;;3.08;;
33738;SDS011;20063;51.730;11.110;2023-02-01T17:28:25;13.15;;;2.70;;
33738;SDS011;20063;51.730;11.110;2023-02-01T17:30:50;10.15;;;2.30;;
33738;SDS011;20063;51.730;11.110;2023-02-01T17:33:18;19.98;;;4.47;;
33738;SDS011;20063;51.730;11.110;2023-02-01T17:35:53;17.85;;;2.85;;
33738;SDS011;20063;51.730;11.110;2023-02-01T17:38:19;8.38;;;2.00;;
33738;SDS011;20063;51.730;11.110;2023-02-01T17:40:45;9.70;;;2.58;;
33738;SDS011;20063;51.730;11.110;2023-02-01T17:43:12;12.68;;;2.25;;